sensor_id;sensor_type;location;lat;lon;timestamp;P1;durP1;ratioP1;P2;durP2;ratioP2
4642;SDS011;2334;48.710;9.622;2023-04-24T00:02:06;1.93;;;1.40;;
4642;SDS011;2334;48.710;9.622;2023-04-24T00:04:37;4.83;;;2.77;;
4642;SDS011;2334;48.710;9.622;2023-04-24T00:07:05;0.80;;;0.80;;
4642;SDS011;2334;48.710;9.622;2023-04-24T00:09:32;0.77;;;0.77;;
4642;SDS011;2334;48.710;9.622;2023-04-24T00:11:59;1.77;;;0.93;;
4642;SDS011;2334;48.710;9.622;2023-04-24T00:14:27;2.30;;;1.00;;
4642;SDS011;2334;48.710;9.622;2023-04-24T00:16:54;1.40;;;1.03;;
4642;SDS011;2334;48.710;9.622;2023-04-24T00:19:21;1.40;;;1.00;;
4642;SDS011;2334;48.710;9.622;2023-04-24T00:21:49;3.43;;;1.40;;
4642;SDS011;2334;48.710;9.622;2023-04-24T00:24:17;1.47;;;1.23;;
4642;SDS011;2334;48.710;9.622;2023-04-24T00:26:44;1.17;;;0.93;;
4642;SDS011;2334;48.710;9.622;2023-04-24T00:29:11;0.70;;;0.70;;
4642;SDS011;2334;48.710;9.622;2023-04-24T00:31:38;1.60;;;1.13;;
4642;SDS011;2334;48.710;9.622;2023-04-24T00:34:04;1.00;;;1.00;;
4642;SDS011;2334;48.710;9.622;2023-04-24T00:36:32;5.50;;;0.93;;
4642;SDS011;2334;48.710;9.622;2023-04-24T00:39:01;2.53;;;1.10;;
4642;SDS011;2334;48.710;9.622;2023-04-24T00:41:28;2.70;;;1.00;;
4642;SDS011;2334;48.710;9.622;2023-04-24T00:43:56;1.10;;;1.00;;
4642;SDS011;2334;48.710;9.622;2023-04-24T00:46:23;0.70;;;0.70;;
4642;SDS011;2334;48.710;9.622;2023-04-24T00:48:50;0.97;;;0.97;;
4642;SDS011;2334;48.710;9.622;2023-04-24T00:51:17;0.80;;;0.80;;
4642;SDS011;2334;48.710;9.622;2023-04-24T00:53:45;2.00;;;0.80;;
4642;SDS011;2334;48.710;9.622;2023-04-24T00:56:13;0.80;;;0.80;;
4642;SDS011;2334;48.710;9.622;2023-04-24T00:58:40;1.37;;;0.83;;
4642;SDS011;2334;48.710;9.622;2023-04-24T01:01:08;0.77;;;0.67;;
4642;SDS011;2334;48.710;9.622;2023-04-24T01:03:36;0.80;;;0.80;;
4642;SDS011;2334;48.710;9.622;2023-04-24T01:06:04;1.90;;;0.83;;
4642;SDS011;2334;48.710;9.622;2023-04-24T01:08:31;1.37;;;1.00;;
4642;SDS011;2334;48.710;9.622;2023-04-24T01:11:00;1.33;;;0.80;;
4642;SDS011;2334;48.710;9.622;2023-04-24T01:13:32;1.00;;;1.00;;
4642;SDS011;2334;48.710;9.622;2023-04-24T01:15:59;0.67;;;0.60;;
4642;SDS011;2334;48.710;9.622;2023-04-24T01:18:27;0.87;;;0.87;;
4642;SDS011;2334;48.710;9.622;2023-04-24T01:20:55;2.03;;;0.90;;
4642;SDS011;2334;48.710;9.622;2023-04-24T01:23:25;1.70;;;0.90;;
4642;SDS011;2334;48.710;9.622;2023-04-24T01:25:52;1.07;;;0.97;;
4642;SDS011;2334;48.710;9.622;2023-04-24T01:28:19;0.83;;;0.83;;
4642;SDS011;2334;48.710;9.622;2023-04-24T01:30:46;1.23;;;0.80;;
4642;SDS011;2334;48.710;9.622;2023-04-24T01:33:13;1.00;;;0.80;;
4642;SDS011;2334;48.710;9.622;2023-04-24T01:35:40;0.90;;;0.90;;
4642;SDS011;2334;48.710;9.622;2023-04-24T01:38:07;0.83;;;0.80;;
4642;SDS011;2334;48.710;9.622;2023-04-24T01:40:35;0.80;;;0.80;;
4642;SDS011;2334;48.710;9.622;2023-04-24T01:43:03;0.87;;;0.83;;
4642;SDS011;2334;48.710;9.622;2023-04-24T01:45:30;1.80;;;1.10;;
4642;SDS011;2334;48.710;9.622;2023-04-24T01:47:57;1.63;;;0.90;;
4642;SDS011;2334;48.710;9.622;2023-04-24T01:50:24;1.40;;;1.30;;
4642;SDS011;2334;48.710;9.622;2023-04-24T01:52:50;1.33;;;1.20;;
4642;SDS011;2334;48.710;9.622;2023-04-24T01:55:17;0.93;;;0.93;;
4642;SDS011;2334;48.710;9.622;2023-04-24T01:57:46;11.20;;;5.50;;
4642;SDS011;2334;48.710;9.622;2023-04-24T02:00:13;24.40;;;10.97;;
4642;SDS011;2334;48.710;9.622;2023-04-24T02:02:40;28.97;;;10.83;;
4642;SDS011;2334;48.710;9.622;2023-04-24T02:05:07;13.40;;;6.17;;
4642;SDS011;2334;48.710;9.622;2023-04-24T02:07:36;3.50;;;2.00;;
4642;SDS011;2334;48.710;9.622;2023-04-24T02:10:03;2.17;;;1.50;;
4642;SDS011;2334;48.710;9.622;2023-04-24T02:12:31;3.33;;;1.73;;
4642;SDS011;2334;48.710;9.622;2023-04-24T02:14:59;4.70;;;1.63;;
4642;SDS011;2334;48.710;9.622;2023-04-24T02:17:26;4.70;;;1.50;;
4642;SDS011;2334;48.710;9.622;2023-04-24T02:19:53;1.67;;;1.50;;
4642;SDS011;2334;48.710;9.622;2023-04-24T02:22:20;1.23;;;1.17;;
4642;SDS011;2334;48.710;9.622;2023-04-24T02:24:47;1.50;;;1.40;;
4642;SDS011;2334;48.710;9.622;2023-04-24T02:27:13;1.77;;;1.10;;
4642;SDS011;2334;48.710;9.622;2023-04-24T02:29:40;1.30;;;1.20;;
4642;SDS011;2334;48.710;9.622;2023-04-24T02:32:09;1.70;;;1.30;;
4642;SDS011;2334;48.710;9.622;2023-04-24T02:34:37;1.20;;;1.10;;
4642;SDS011;2334;48.710;9.622;2023-04-24T02:37:03;1.03;;;0.93;;
4642;SDS011;2334;48.710;9.622;2023-04-24T02:39:30;1.40;;;1.20;;
4642;SDS011;2334;48.710;9.622;2023-04-24T02:41:57;1.67;;;1.57;;
4642;SDS011;2334;48.710;9.622;2023-04-24T02:44:25;1.47;;;1.37;;
4642;SDS011;2334;48.710;9.622;2023-04-24T02:46:51;5.23;;;2.10;;
4642;SDS011;2334;48.710;9.622;2023-04-24T02:49:20;2.40;;;1.43;;
4642;SDS011;2334;48.710;9.622;2023-04-24T02:51:46;5.13;;;1.97;;
4642;SDS011;2334;48.710;9.622;2023-04-24T02:54:13;2.37;;;1.73;;
4642;SDS011;2334;48.710;9.622;2023-04-24T02:56:40;2.10;;;1.87;;
4642;SDS011;2334;48.710;9.622;2023-04-24T02:59:07;3.13;;;1.80;;
4642;SDS011;2334;48.710;9.622;2023-04-24T03:01:35;2.23;;;1.90;;
4642;SDS011;2334;48.710;9.622;2023-04-24T03:04:02;2.77;;;1.67;;
4642;SDS011;2334;48.710;9.622;2023-04-24T03:06:31;3.80;;;1.50;;
4642;SDS011;2334;48.710;9.622;2023-04-24T03:09:00;1.40;;;1.30;;
4642;SDS011;2334;48.710;9.622;2023-04-24T03:11:28;1.90;;;1.10;;
4642;SDS011;2334;48.710;9.622;2023-04-24T03:13:55;2.83;;;1.23;;
4642;SDS011;2334;48.710;9.622;2023-04-24T03:16:22;1.10;;;1.10;;
4642;SDS011;2334;48.710;9.622;2023-04-24T03:18:48;4.77;;;1.00;;
4642;SDS011;2334;48.710;9.622;2023-04-24T03:21:15;2.70;;;1.37;;
4642;SDS011;2334;48.710;9.622;2023-04-24T03:23:44;2.70;;;1.10;;
4642;SDS011;2334;48.710;9.622;2023-04-24T03:26:10;2.47;;;1.43;;
4642;SDS011;2334;48.710;9.622;2023-04-24T03:28:37;1.50;;;1.40;;
4642;SDS011;2334;48.710;9.622;2023-04-24T03:31:04;2.63;;;1.27;;
4642;SDS011;2334;48.710;9.622;2023-04-24T03:33:31;2.17;;;1.23;;
4642;SDS011;2334;48.710;9.622;2023-04-24T03:35:58;1.33;;;1.23;;
4642;SDS011;2334;48.710;9.622;2023-04-24T03:38:25;1.40;;;1.30;;
4642;SDS011;2334;48.710;9.622;2023-04-24T03:40:53;1.50;;;1.20;;
4642;SDS011;2334;48.710;9.622;2023-04-24T03:43:20;1.60;;;1.50;;
4642;SDS011;2334;48.710;9.622;2023-04-24T03:45:47;1.17;;;1.10;;
4642;SDS011;2334;48.710;9.622;2023-04-24T03:48:13;1.20;;;1.20;;
4642;SDS011;2334;48.710;9.622;2023-04-24T03:50:40;11.03;;;1.70;;
4642;SDS011;2334;48.710;9.622;2023-04-24T03:53:07;2.40;;;0.90;;
4642;SDS011;2334;48.710;9.622;2023-04-24T03:55:34;1.57;;;1.47;;
4642;SDS011;2334;48.710;9.622;2023-04-24T03:58:02;2.93;;;1.77;;
4642;SDS011;2334;48.710;9.622;2023-04-24T04:00:29;1.97;;;1.87;;
4642;SDS011;2334;48.710;9.622;2023-04-24T04:02:58;1.30;;;1.20;;
4642;SDS011;2334;48.710;9.622;2023-04-24T04:05:25;1.07;;;1.07;;
4642;SDS011;2334;48.710;9.622;2023-04-24T04:07:52;3.83;;;1.53;;
4642;SDS011;2334;48.710;9.622;2023-04-24T04:10:19;3.37;;;1.97;;
4642;SDS011;2334;48.710;9.622;2023-04-24T04:12:46;4.80;;;1.17;;
4642;SDS011;2334;48.710;9.622;2023-04-24T04:15:14;3.07;;;1.20;;
4642;SDS011;2334;48.710;9.622;2023-04-24T04:17:41;5.67;;;1.20;;
4642;SDS011;2334;48.710;9.622;2023-04-24T04:20:08;1.63;;;1.30;;
4642;SDS011;2334;48.710;9.622;2023-04-24T04:22:35;1.60;;;1.20;;
4642;SDS011;2334;48.710;9.622;2023-04-24T04:25:03;2.63;;;1.13;;
4642;SDS011;2334;48.710;9.622;2023-04-24T04:27:30;1.33;;;0.90;;
4642;SDS011;2334;48.710;9.622;2023-04-24T04:29:58;2.50;;;1.07;;
4642;SDS011;2334;48.710;9.622;2023-04-24T04:32:30;1.17;;;1.17;;
4642;SDS011;2334;48.710;9.622;2023-04-24T04:34:59;3.10;;;1.47;;
4642;SDS011;2334;48.710;9.622;2023-04-24T04:37:28;1.30;;;1.20;;
4642;SDS011;2334;48.710;9.622;2023-04-24T04:39:55;1.97;;;1.30;;
4642;SDS011;2334;48.710;9.622;2023-04-24T04:42:23;2.60;;;1.27;;
4642;SDS011;2334;48.710;9.622;2023-04-24T04:44:49;1.77;;;1.67;;
4642;SDS011;2334;48.710;9.622;2023-04-24T04:47:16;2.13;;;1.70;;
4642;SDS011;2334;48.710;9.622;2023-04-24T04:49:45;1.00;;;1.00;;
4642;SDS011;2334;48.710;9.622;2023-04-24T04:52:12;1.37;;;1.27;;
4642;SDS011;2334;48.710;9.622;2023-04-24T04:54:38;1.20;;;1.10;;
4642;SDS011;2334;48.710;9.622;2023-04-24T04:57:05;1.93;;;1.33;;
4642;SDS011;2334;48.710;9.622;2023-04-24T04:59:33;2.67;;;1.57;;
4642;SDS011;2334;48.710;9.622;2023-04-24T05:02:00;5.50;;;1.50;;
4642;SDS011;2334;48.710;9.622;2023-04-24T05:04:27;1.67;;;1.50;;
4642;SDS011;2334;48.710;9.622;2023-04-24T05:06:55;1.63;;;1.53;;
4642;SDS011;2334;48.710;9.622;2023-04-24T05:09:22;6.23;;;2.40;;
4642;SDS011;2334;48.710;9.622;2023-04-24T05:11:52;3.10;;;1.60;;
4642;SDS011;2334;48.710;9.622;2023-04-24T05:14:19;0.80;;;0.80;;
4642;SDS011;2334;48.710;9.622;2023-04-24T05:16:46;1.00;;;0.93;;
4642;SDS011;2334;48.710;9.622;2023-04-24T05:19:13;1.70;;;0.90;;
4642;SDS011;2334;48.710;9.622;2023-04-24T05:21:40;0.67;;;0.67;;
4642;SDS011;2334;48.710;9.622;2023-04-24T05:24:09;4.10;;;0.87;;
4642;SDS011;2334;48.710;9.622;2023-04-24T05:26:35;1.37;;;1.00;;
4642;SDS011;2334;48.710;9.622;2023-04-24T05:29:02;1.23;;;1.00;;
4642;SDS011;2334;48.710;9.622;2023-04-24T05:31:30;3.40;;;1.07;;
4642;SDS011;2334;48.710;9.622;2023-04-24T05:33:57;4.20;;;1.20;;
4642;SDS011;2334;48.710;9.622;2023-04-24T05:36:23;2.87;;;1.33;;
4642;SDS011;2334;48.710;9.622;2023-04-24T05:38:52;1.87;;;1.40;;
4642;SDS011;2334;48.710;9.622;2023-04-24T05:41:20;5.87;;;1.57;;
4642;SDS011;2334;48.710;9.622;2023-04-24T05:43:47;1.47;;;0.93;;
4642;SDS011;2334;48.710;9.622;2023-04-24T05:46:14;1.93;;;0.90;;
4642;SDS011;2334;48.710;9.622;2023-04-24T05:48:41;1.03;;;0.93;;
4642;SDS011;2334;48.710;9.622;2023-04-24T05:51:08;2.87;;;1.03;;
4642;SDS011;2334;48.710;9.622;2023-04-24T05:53:35;3.57;;;1.40;;
4642;SDS011;2334;48.710;9.622;2023-04-24T05:56:02;1.33;;;0.97;;
4642;SDS011;2334;48.710;9.622;2023-04-24T05:58:30;1.10;;;1.00;;
4642;SDS011;2334;48.710;9.622;2023-04-24T06:00:57;1.60;;;1.20;;
4642;SDS011;2334;48.710;9.622;2023-04-24T06:03:26;2.40;;;1.50;;
4642;SDS011;2334;48.710;9.622;2023-04-24T06:05:53;5.83;;;1.40;;
4642;SDS011;2334;48.710;9.622;2023-04-24T06:08:20;6.50;;;1.70;;
4642;SDS011;2334;48.710;9.622;2023-04-24T06:10:47;6.33;;;1.20;;
4642;SDS011;2334;48.710;9.622;2023-04-24T06:13:14;1.20;;;1.00;;
4642;SDS011;2334;48.710;9.622;2023-04-24T06:15:43;2.10;;;1.47;;
4642;SDS011;2334;48.710;9.622;2023-04-24T06:18:10;1.40;;;1.30;;
4642;SDS011;2334;48.710;9.622;2023-04-24T06:20:37;2.00;;;0.90;;
4642;SDS011;2334;48.710;9.622;2023-04-24T06:23:05;2.33;;;0.93;;
4642;SDS011;2334;48.710;9.622;2023-04-24T06:25:31;1.90;;;1.30;;
4642;SDS011;2334;48.710;9.622;2023-04-24T06:27:59;1.63;;;1.30;;
4642;SDS011;2334;48.710;9.622;2023-04-24T06:30:26;1.23;;;0.97;;
4642;SDS011;2334;48.710;9.622;2023-04-24T06:32:55;1.20;;;1.10;;
4642;SDS011;2334;48.710;9.622;2023-04-24T06:35:22;4.53;;;1.40;;
4642;SDS011;2334;48.710;9.622;2023-04-24T06:37:49;1.43;;;1.33;;
4642;SDS011;2334;48.710;9.622;2023-04-24T06:40:17;4.43;;;1.73;;
4642;SDS011;2334;48.710;9.622;2023-04-24T06:42:44;2.90;;;1.03;;
4642;SDS011;2334;48.710;9.622;2023-04-24T06:45:11;3.40;;;1.10;;
4642;SDS011;2334;48.710;9.622;2023-04-24T06:47:40;1.60;;;1.00;;
4642;SDS011;2334;48.710;9.622;2023-04-24T06:50:14;2.57;;;1.47;;
4642;SDS011;2334;48.710;9.622;2023-04-24T06:52:42;9.07;;;1.70;;
4642;SDS011;2334;48.710;9.622;2023-04-24T06:55:09;1.50;;;1.40;;
4642;SDS011;2334;48.710;9.622;2023-04-24T06:57:36;3.57;;;1.00;;
4642;SDS011;2334;48.710;9.622;2023-04-24T07:00:03;2.53;;;1.60;;
4642;SDS011;2334;48.710;9.622;2023-04-24T07:02:32;1.30;;;1.20;;
4642;SDS011;2334;48.710;9.622;2023-04-24T07:04:58;2.80;;;1.67;;
4642;SDS011;2334;48.710;9.622;2023-04-24T07:07:27;2.07;;;1.60;;
4642;SDS011;2334;48.710;9.622;2023-04-24T07:09:54;1.53;;;1.20;;
4642;SDS011;2334;48.710;9.622;2023-04-24T07:12:21;4.70;;;1.10;;
4642;SDS011;2334;48.710;9.622;2023-04-24T07:14:48;0.90;;;0.90;;
4642;SDS011;2334;48.710;9.622;2023-04-24T07:17:15;2.13;;;1.53;;
4642;SDS011;2334;48.710;9.622;2023-04-24T07:19:42;1.80;;;1.20;;
4642;SDS011;2334;48.710;9.622;2023-04-24T07:22:09;1.20;;;1.17;;
4642;SDS011;2334;48.710;9.622;2023-04-24T07:24:43;1.33;;;1.23;;
4642;SDS011;2334;48.710;9.622;2023-04-24T07:27:12;1.00;;;1.00;;
4642;SDS011;2334;48.710;9.622;2023-04-24T07:29:40;2.10;;;1.27;;
4642;SDS011;2334;48.710;9.622;2023-04-24T07:32:06;3.10;;;1.27;;
4642;SDS011;2334;48.710;9.622;2023-04-24T07:34:34;1.20;;;1.10;;
4642;SDS011;2334;48.710;9.622;2023-04-24T07:37:01;0.80;;;0.80;;
4642;SDS011;2334;48.710;9.622;2023-04-24T07:39:28;0.80;;;0.80;;
4642;SDS011;2334;48.710;9.622;2023-04-24T07:41:56;2.10;;;1.30;;
4642;SDS011;2334;48.710;9.622;2023-04-24T07:44:24;4.70;;;1.40;;
4642;SDS011;2334;48.710;9.622;2023-04-24T07:46:51;2.10;;;1.30;;
4642;SDS011;2334;48.710;9.622;2023-04-24T07:49:19;1.47;;;1.20;;
4642;SDS011;2334;48.710;9.622;2023-04-24T07:51:46;1.30;;;1.20;;
4642;SDS011;2334;48.710;9.622;2023-04-24T07:54:13;1.43;;;1.30;;
4642;SDS011;2334;48.710;9.622;2023-04-24T07:56:40;2.40;;;1.40;;
4642;SDS011;2334;48.710;9.622;2023-04-24T07:59:09;2.80;;;1.53;;
4642;SDS011;2334;48.710;9.622;2023-04-24T08:01:36;1.53;;;1.43;;
4642;SDS011;2334;48.710;9.622;2023-04-24T08:04:03;1.70;;;1.60;;
4642;SDS011;2334;48.710;9.622;2023-04-24T08:06:30;1.40;;;1.30;;
4642;SDS011;2334;48.710;9.622;2023-04-24T08:08:57;1.40;;;1.10;;
4642;SDS011;2334;48.710;9.622;2023-04-24T08:11:24;1.10;;;1.00;;
4642;SDS011;2334;48.710;9.622;2023-04-24T08:13:51;1.30;;;0.80;;
4642;SDS011;2334;48.710;9.622;2023-04-24T08:16:20;2.40;;;1.00;;
4642;SDS011;2334;48.710;9.622;2023-04-24T08:18:48;1.07;;;0.70;;
4642;SDS011;2334;48.710;9.622;2023-04-24T08:21:16;1.10;;;1.10;;
4642;SDS011;2334;48.710;9.622;2023-04-24T08:23:43;3.20;;;1.27;;
4642;SDS011;2334;48.710;9.622;2023-04-24T08:26:10;1.63;;;0.70;;
4642;SDS011;2334;48.710;9.622;2023-04-24T08:28:37;1.10;;;1.10;;
4642;SDS011;2334;48.710;9.622;2023-04-24T08:31:04;4.37;;;1.30;;
4642;SDS011;2334;48.710;9.622;2023-04-24T08:33:32;1.60;;;1.50;;
4642;SDS011;2334;48.710;9.622;2023-04-24T08:36:00;0.97;;;0.97;;
4642;SDS011;2334;48.710;9.622;2023-04-24T08:38:28;4.90;;;1.70;;
4642;SDS011;2334;48.710;9.622;2023-04-24T08:40:55;1.23;;;1.17;;
4642;SDS011;2334;48.710;9.622;2023-04-24T08:43:24;1.10;;;1.00;;
4642;SDS011;2334;48.710;9.622;2023-04-24T08:45:52;1.70;;;1.50;;
4642;SDS011;2334;48.710;9.622;2023-04-24T08:48:19;1.27;;;1.03;;
4642;SDS011;2334;48.710;9.622;2023-04-24T08:50:49;1.10;;;0.80;;
4642;SDS011;2334;48.710;9.622;2023-04-24T08:53:17;0.80;;;0.80;;
4642;SDS011;2334;48.710;9.622;2023-04-24T08:55:45;1.00;;;0.90;;
4642;SDS011;2334;48.710;9.622;2023-04-24T08:58:14;1.87;;;0.93;;
4642;SDS011;2334;48.710;9.622;2023-04-24T09:00:43;1.87;;;1.00;;
4642;SDS011;2334;48.710;9.622;2023-04-24T09:03:12;0.90;;;0.90;;
4642;SDS011;2334;48.710;9.622;2023-04-24T09:05:40;1.73;;;1.33;;
4642;SDS011;2334;48.710;9.622;2023-04-24T09:08:12;2.90;;;1.50;;
4642;SDS011;2334;48.710;9.622;2023-04-24T09:10:40;2.30;;;1.33;;
4642;SDS011;2334;48.710;9.622;2023-04-24T09:13:07;1.53;;;1.10;;
4642;SDS011;2334;48.710;9.622;2023-04-24T09:15:35;2.07;;;0.90;;
4642;SDS011;2334;48.710;9.622;2023-04-24T09:18:03;1.13;;;1.03;;
4642;SDS011;2334;48.710;9.622;2023-04-24T09:20:31;2.40;;;1.30;;
4642;SDS011;2334;48.710;9.622;2023-04-24T09:22:58;3.90;;;1.33;;
4642;SDS011;2334;48.710;9.622;2023-04-24T09:25:30;1.90;;;1.20;;
4642;SDS011;2334;48.710;9.622;2023-04-24T09:28:00;2.03;;;1.20;;
4642;SDS011;2334;48.710;9.622;2023-04-24T09:30:28;1.40;;;1.13;;
4642;SDS011;2334;48.710;9.622;2023-04-24T09:33:09;1.80;;;1.10;;
4642;SDS011;2334;48.710;9.622;2023-04-24T09:35:39;2.10;;;1.00;;
4642;SDS011;2334;48.710;9.622;2023-04-24T09:38:08;0.93;;;0.90;;
4642;SDS011;2334;48.710;9.622;2023-04-24T09:40:36;1.80;;;1.10;;
4642;SDS011;2334;48.710;9.622;2023-04-24T09:43:03;2.90;;;1.00;;
4642;SDS011;2334;48.710;9.622;2023-04-24T09:45:35;1.00;;;1.00;;
4642;SDS011;2334;48.710;9.622;2023-04-24T09:48:02;1.23;;;1.23;;
4642;SDS011;2334;48.710;9.622;2023-04-24T09:50:31;0.90;;;0.90;;
4642;SDS011;2334;48.710;9.622;2023-04-24T09:53:01;1.20;;;1.13;;
4642;SDS011;2334;48.710;9.622;2023-04-24T09:55:29;1.97;;;1.87;;
4642;SDS011;2334;48.710;9.622;2023-04-24T09:57:58;1.10;;;1.00;;
4642;SDS011;2334;48.710;9.622;2023-04-24T10:00:27;1.70;;;1.47;;
4642;SDS011;2334;48.710;9.622;2023-04-24T10:02:55;2.03;;;1.30;;
4642;SDS011;2334;48.710;9.622;2023-04-24T10:05:24;1.73;;;1.27;;
4642;SDS011;2334;48.710;9.622;2023-04-24T10:07:55;1.33;;;1.23;;
4642;SDS011;2334;48.710;9.622;2023-04-24T10:10:23;2.77;;;1.17;;
4642;SDS011;2334;48.710;9.622;2023-04-24T10:12:51;1.50;;;1.00;;
4642;SDS011;2334;48.710;9.622;2023-04-24T10:15:20;1.90;;;1.00;;
4642;SDS011;2334;48.710;9.622;2023-04-24T10:17:47;2.53;;;1.00;;
4642;SDS011;2334;48.710;9.622;2023-04-24T10:20:17;2.33;;;1.13;;
4642;SDS011;2334;48.710;9.622;2023-04-24T10:22:46;0.97;;;0.70;;
4642;SDS011;2334;48.710;9.622;2023-04-24T10:25:17;1.37;;;0.90;;
4642;SDS011;2334;48.710;9.622;2023-04-24T10:27:46;1.77;;;0.90;;
4642;SDS011;2334;48.710;9.622;2023-04-24T10:30:13;2.77;;;0.80;;
4642;SDS011;2334;48.710;9.622;2023-04-24T10:32:42;0.80;;;0.80;;
4642;SDS011;2334;48.710;9.622;2023-04-24T10:35:09;5.07;;;0.97;;
4642;SDS011;2334;48.710;9.622;2023-04-24T10:37:38;0.73;;;0.70;;
4642;SDS011;2334;48.710;9.622;2023-04-24T10:40:07;1.43;;;0.90;;
4642;SDS011;2334;48.710;9.622;2023-04-24T10:42:36;1.17;;;0.90;;
4642;SDS011;2334;48.710;9.622;2023-04-24T10:45:07;2.30;;;0.70;;
4642;SDS011;2334;48.710;9.622;2023-04-24T10:47:51;1.80;;;0.80;;
4642;SDS011;2334;48.710;9.622;2023-04-24T10:50:19;9.50;;;0.93;;
4642;SDS011;2334;48.710;9.622;2023-04-24T10:52:46;1.03;;;0.80;;
4642;SDS011;2334;48.710;9.622;2023-04-24T10:55:16;0.63;;;0.63;;
4642;SDS011;2334;48.710;9.622;2023-04-24T10:58:07;0.80;;;0.80;;
4642;SDS011;2334;48.710;9.622;2023-04-24T11:00:35;0.70;;;0.70;;
4642;SDS011;2334;48.710;9.622;2023-04-24T11:03:05;1.53;;;1.00;;
4642;SDS011;2334;48.710;9.622;2023-04-24T11:05:49;1.07;;;0.70;;
4642;SDS011;2334;48.710;9.622;2023-04-24T11:08:25;0.73;;;0.73;;
4642;SDS011;2334;48.710;9.622;2023-04-24T11:11:00;1.33;;;0.90;;
4642;SDS011;2334;48.710;9.622;2023-04-24T11:16:28;1.47;;;0.80;;
4642;SDS011;2334;48.710;9.622;2023-04-24T11:19:01;0.87;;;0.70;;
4642;SDS011;2334;48.710;9.622;2023-04-24T11:21:39;0.60;;;0.60;;
4642;SDS011;2334;48.710;9.622;2023-04-24T11:24:23;3.83;;;0.70;;
4642;SDS011;2334;48.710;9.622;2023-04-24T11:26:52;0.90;;;0.90;;
4642;SDS011;2334;48.710;9.622;2023-04-24T11:29:21;0.70;;;0.70;;
4642;SDS011;2334;48.710;9.622;2023-04-24T11:31:56;0.77;;;0.77;;
4642;SDS011;2334;48.710;9.622;2023-04-24T11:34:46;0.70;;;0.70;;
4642;SDS011;2334;48.710;9.622;2023-04-24T11:37:14;0.70;;;0.63;;
4642;SDS011;2334;48.710;9.622;2023-04-24T11:39:42;0.80;;;0.70;;
4642;SDS011;2334;48.710;9.622;2023-04-24T11:42:09;1.37;;;0.90;;
4642;SDS011;2334;48.710;9.622;2023-04-24T11:44:36;1.33;;;0.60;;
4642;SDS011;2334;48.710;9.622;2023-04-24T11:47:04;2.90;;;1.00;;
4642;SDS011;2334;48.710;9.622;2023-04-24T11:49:32;3.13;;;0.67;;
4642;SDS011;2334;48.710;9.622;2023-04-24T11:52:00;0.60;;;0.60;;
4642;SDS011;2334;48.710;9.622;2023-04-24T11:54:27;0.53;;;0.53;;
4642;SDS011;2334;48.710;9.622;2023-04-24T11:56:55;5.10;;;1.37;;
4642;SDS011;2334;48.710;9.622;2023-04-24T11:59:22;0.63;;;0.63;;
4642;SDS011;2334;48.710;9.622;2023-04-24T12:01:49;7.20;;;1.10;;
4642;SDS011;2334;48.710;9.622;2023-04-24T12:04:17;0.60;;;0.60;;
4642;SDS011;2334;48.710;9.622;2023-04-24T12:07:02;1.23;;;0.90;;
4642;SDS011;2334;48.710;9.622;2023-04-24T12:09:39;1.47;;;1.37;;
4642;SDS011;2334;48.710;9.622;2023-04-24T12:12:10;1.20;;;1.20;;
4642;SDS011;2334;48.710;9.622;2023-04-24T12:14:49;0.70;;;0.70;;
4642;SDS011;2334;48.710;9.622;2023-04-24T12:17:23;1.90;;;1.50;;
4642;SDS011;2334;48.710;9.622;2023-04-24T12:19:51;2.63;;;0.97;;
4642;SDS011;2334;48.710;9.622;2023-04-24T12:22:20;0.90;;;0.90;;
4642;SDS011;2334;48.710;9.622;2023-04-24T12:24:56;0.87;;;0.83;;
4642;SDS011;2334;48.710;9.622;2023-04-24T12:27:31;2.77;;;0.67;;
4642;SDS011;2334;48.710;9.622;2023-04-24T12:30:02;0.70;;;0.70;;
4642;SDS011;2334;48.710;9.622;2023-04-24T12:32:30;0.77;;;0.77;;
4642;SDS011;2334;48.710;9.622;2023-04-24T12:34:57;0.90;;;0.90;;
4642;SDS011;2334;48.710;9.622;2023-04-24T12:37:26;0.80;;;0.80;;
4642;SDS011;2334;48.710;9.622;2023-04-24T12:40:02;0.90;;;0.80;;
4642;SDS011;2334;48.710;9.622;2023-04-24T12:42:31;0.77;;;0.73;;
4642;SDS011;2334;48.710;9.622;2023-04-24T12:45:00;3.40;;;0.80;;
4642;SDS011;2334;48.710;9.622;2023-04-24T12:47:28;0.70;;;0.70;;
4642;SDS011;2334;48.710;9.622;2023-04-24T12:49:55;0.90;;;0.90;;
4642;SDS011;2334;48.710;9.622;2023-04-24T12:52:22;0.87;;;0.87;;
4642;SDS011;2334;48.710;9.622;2023-04-24T12:54:51;1.30;;;1.20;;
4642;SDS011;2334;48.710;9.622;2023-04-24T12:57:20;0.77;;;0.77;;
4642;SDS011;2334;48.710;9.622;2023-04-24T12:59:46;1.50;;;0.70;;
4642;SDS011;2334;48.710;9.622;2023-04-24T13:02:13;3.40;;;1.10;;
4642;SDS011;2334;48.710;9.622;2023-04-24T13:04:42;1.53;;;1.00;;
4642;SDS011;2334;48.710;9.622;2023-04-24T13:07:11;0.80;;;0.80;;
4642;SDS011;2334;48.710;9.622;2023-04-24T13:09:38;0.80;;;0.80;;
4642;SDS011;2334;48.710;9.622;2023-04-24T13:12:07;2.70;;;1.00;;
4642;SDS011;2334;48.710;9.622;2023-04-24T13:14:34;0.90;;;0.90;;
4642;SDS011;2334;48.710;9.622;2023-04-24T13:17:01;2.00;;;1.00;;
4642;SDS011;2334;48.710;9.622;2023-04-24T13:19:29;0.80;;;0.80;;
4642;SDS011;2334;48.710;9.622;2023-04-24T13:21:56;1.53;;;0.90;;
4642;SDS011;2334;48.710;9.622;2023-04-24T13:24:24;0.70;;;0.70;;
4642;SDS011;2334;48.710;9.622;2023-04-24T13:26:51;1.77;;;0.63;;
4642;SDS011;2334;48.710;9.622;2023-04-24T13:29:20;1.20;;;0.80;;
4642;SDS011;2334;48.710;9.622;2023-04-24T13:31:49;1.10;;;0.87;;
4642;SDS011;2334;48.710;9.622;2023-04-24T13:34:17;0.80;;;0.80;;
4642;SDS011;2334;48.710;9.622;2023-04-24T13:36:44;0.90;;;0.90;;
4642;SDS011;2334;48.710;9.622;2023-04-24T13:39:11;1.20;;;1.10;;
4642;SDS011;2334;48.710;9.622;2023-04-24T13:41:38;0.80;;;0.80;;
4642;SDS011;2334;48.710;9.622;2023-04-24T13:44:05;1.30;;;1.20;;
4642;SDS011;2334;48.710;9.622;2023-04-24T13:46:36;6.43;;;0.90;;
4642;SDS011;2334;48.710;9.622;2023-04-24T13:49:02;1.60;;;1.10;;
4642;SDS011;2334;48.710;9.622;2023-04-24T13:51:29;1.03;;;0.90;;
4642;SDS011;2334;48.710;9.622;2023-04-24T13:53:56;0.70;;;0.70;;
4642;SDS011;2334;48.710;9.622;2023-04-24T13:56:24;1.80;;;1.70;;
4642;SDS011;2334;48.710;9.622;2023-04-24T13:58:51;7.50;;;2.37;;
4642;SDS011;2334;48.710;9.622;2023-04-24T14:01:19;3.70;;;1.77;;
4642;SDS011;2334;48.710;9.622;2023-04-24T14:03:50;1.80;;;1.30;;
4642;SDS011;2334;48.710;9.622;2023-04-24T14:06:17;4.57;;;1.00;;
4642;SDS011;2334;48.710;9.622;2023-04-24T14:08:44;1.53;;;0.93;;
4642;SDS011;2334;48.710;9.622;2023-04-24T14:11:11;0.80;;;0.80;;
4642;SDS011;2334;48.710;9.622;2023-04-24T14:13:39;1.50;;;0.90;;
4642;SDS011;2334;48.710;9.622;2023-04-24T14:16:08;4.20;;;1.00;;
4642;SDS011;2334;48.710;9.622;2023-04-24T14:18:35;1.67;;;1.57;;
4642;SDS011;2334;48.710;9.622;2023-04-24T14:21:03;1.00;;;1.00;;
4642;SDS011;2334;48.710;9.622;2023-04-24T14:23:30;1.00;;;0.93;;
4642;SDS011;2334;48.710;9.622;2023-04-24T14:25:57;6.80;;;1.07;;
4642;SDS011;2334;48.710;9.622;2023-04-24T14:28:24;1.37;;;1.17;;
4642;SDS011;2334;48.710;9.622;2023-04-24T14:30:52;2.17;;;1.97;;
4642;SDS011;2334;48.710;9.622;2023-04-24T14:33:19;3.93;;;1.27;;
4642;SDS011;2334;48.710;9.622;2023-04-24T14:35:45;0.70;;;0.70;;
4642;SDS011;2334;48.710;9.622;2023-04-24T14:38:14;1.20;;;1.10;;
4642;SDS011;2334;48.710;9.622;2023-04-24T14:40:41;3.70;;;1.23;;
4642;SDS011;2334;48.710;9.622;2023-04-24T14:43:08;1.70;;;1.17;;
4642;SDS011;2334;48.710;9.622;2023-04-24T14:45:35;1.30;;;1.20;;
4642;SDS011;2334;48.710;9.622;2023-04-24T14:48:03;1.17;;;0.90;;
4642;SDS011;2334;48.710;9.622;2023-04-24T14:50:30;0.90;;;0.90;;
4642;SDS011;2334;48.710;9.622;2023-04-24T14:52:57;1.00;;;0.90;;
4642;SDS011;2334;48.710;9.622;2023-04-24T14:55:25;1.20;;;0.83;;
4642;SDS011;2334;48.710;9.622;2023-04-24T14:57:52;1.37;;;0.80;;
4642;SDS011;2334;48.710;9.622;2023-04-24T15:00:20;4.63;;;1.10;;
4642;SDS011;2334;48.710;9.622;2023-04-24T15:02:48;1.47;;;0.80;;
4642;SDS011;2334;48.710;9.622;2023-04-24T15:05:15;1.13;;;1.03;;
4642;SDS011;2334;48.710;9.622;2023-04-24T15:07:42;2.00;;;1.30;;
4642;SDS011;2334;48.710;9.622;2023-04-24T15:10:10;2.73;;;1.27;;
4642;SDS011;2334;48.710;9.622;2023-04-24T15:12:38;3.10;;;1.17;;
4642;SDS011;2334;48.710;9.622;2023-04-24T15:15:06;3.43;;;1.33;;
4642;SDS011;2334;48.710;9.622;2023-04-24T15:17:36;1.40;;;1.30;;
4642;SDS011;2334;48.710;9.622;2023-04-24T15:20:03;1.67;;;1.57;;
4642;SDS011;2334;48.710;9.622;2023-04-24T15:22:31;1.27;;;1.00;;
4642;SDS011;2334;48.710;9.622;2023-04-24T15:24:58;1.97;;;1.17;;